createdAt,value
2018-01-27T00:01:29.387Z,7.80
2018-01-27T00:03:57.145Z,7.90
2018-01-27T00:06:25.904Z,7.80
2018-01-27T00:08:53.716Z,7.80
2018-01-27T00:11:21.384Z,7.80
2018-01-27T00:13:51.711Z,7.80
2018-01-27T00:16:20.257Z,7.80
2018-01-27T00:18:47.883Z,7.80
2018-01-27T00:21:15.541Z,7.80
2018-01-27T00:23:43.887Z,7.80
2018-01-27T00:26:11.504Z,7.70
2018-01-27T00:28:40.162Z,7.80
2018-01-27T00:31:07.957Z,7.80
2018-01-27T00:33:35.615Z,7.70
2018-01-27T00:36:03.201Z,7.70
2018-01-27T00:38:30.896Z,7.70
2018-01-27T00:40:59.368Z,7.80
2018-01-27T00:43:27.290Z,7.70
2018-01-27T00:45:55.002Z,7.70
2018-01-27T00:48:22.632Z,7.70
2018-01-27T00:50:50.282Z,7.70
2018-01-27T00:53:18.012Z,7.70
2018-01-27T00:55:46.593Z,7.70
2018-01-27T00:58:15.012Z,7.70
2018-01-27T01:00:43.624Z,7.70
2018-01-27T01:03:11.232Z,7.70
2018-01-27T01:05:39.638Z,7.80
2018-01-27T01:08:07.323Z,7.80
2018-01-27T01:10:34.900Z,7.80
2018-01-27T01:13:02.486Z,7.70
2018-01-27T01:15:31.169Z,7.70
2018-01-27T01:18:00.601Z,7.70
2018-01-27T01:20:28.224Z,7.70
2018-01-27T01:22:56.698Z,7.70
2018-01-27T01:25:25.084Z,7.60
2018-01-27T01:27:53.621Z,7.60
2018-01-27T01:30:21.567Z,7.70
2018-01-27T01:32:49.170Z,7.70
2018-01-27T01:35:16.862Z,7.70
2018-01-27T01:37:45.477Z,7.70
2018-01-27T01:40:13.106Z,7.70
2018-01-27T01:42:41.488Z,7.70
2018-01-27T01:45:09.581Z,7.70
2018-01-27T01:47:37.286Z,7.70
2018-01-27T01:50:04.883Z,7.60
2018-01-27T01:52:32.479Z,7.60
2018-01-27T01:55:00.965Z,7.60
2018-01-27T01:57:28.557Z,7.60
2018-01-27T01:59:56.386Z,7.70
2018-01-27T02:02:24.035Z,7.60
2018-01-27T02:04:52.386Z,7.60
2018-01-27T02:07:19.983Z,7.60
2018-01-27T02:09:48.335Z,7.70
2018-01-27T02:12:16.722Z,7.70
2018-01-27T02:14:45.104Z,7.60
2018-01-27T02:17:12.755Z,7.60
2018-01-27T02:19:41.242Z,7.60
2018-01-27T02:22:10.712Z,7.60
2018-01-27T02:24:38.318Z,7.60
2018-01-27T02:27:06.071Z,7.50
2018-01-27T02:29:33.885Z,7.60
2018-01-27T02:32:01.701Z,7.50
2018-01-27T02:34:29.282Z,7.50
2018-01-27T02:36:57.736Z,7.50
2018-01-27T02:39:25.938Z,7.50
2018-01-27T02:41:53.756Z,7.50
2018-01-27T02:44:21.607Z,7.60
2018-01-27T02:46:49.192Z,7.60
2018-01-27T02:49:17.531Z,7.60
2018-01-27T02:51:45.217Z,7.50
2018-01-27T02:54:12.929Z,7.50
2018-01-27T02:56:41.338Z,7.60
2018-01-27T02:59:09.690Z,7.50
2018-01-27T03:01:37.335Z,7.50
2018-01-27T03:04:05.811Z,7.60
2018-01-27T03:06:34.457Z,7.60
2018-01-27T03:09:02.047Z,7.60
2018-01-27T03:11:29.616Z,7.60
2018-01-27T03:13:57.270Z,7.60
2018-01-27T03:16:26.606Z,7.60
2018-01-27T03:18:54.988Z,7.50
2018-01-27T03:21:22.892Z,7.50
2018-01-27T03:23:50.519Z,7.50
2018-01-27T03:26:18.177Z,7.50
2018-01-27T03:28:45.893Z,7.50
2018-01-27T03:31:13.552Z,7.50
2018-01-27T03:33:41.279Z,7.50
2018-01-27T03:36:08.978Z,7.50
2018-01-27T03:38:36.560Z,7.50
2018-01-27T03:41:04.122Z,7.60
2018-01-27T03:43:31.791Z,7.60
2018-01-27T03:45:59.651Z,7.60
2018-01-27T03:48:28.482Z,7.60
2018-01-27T03:50:56.221Z,7.60
2018-01-27T03:53:23.811Z,7.50
2018-01-27T03:55:52.211Z,7.50
2018-01-27T03:58:19.883Z,7.50
2018-01-27T04:00:48.326Z,7.50
2018-01-27T04:03:15.991Z,7.50
2018-01-27T04:05:44.465Z,7.40
2018-01-27T04:08:12.834Z,7.40
2018-01-27T04:10:40.559Z,7.40
2018-01-27T04:13:08.276Z,7.40
2018-01-27T04:15:35.966Z,7.30
2018-01-27T04:18:03.671Z,7.30
2018-01-27T04:20:31.335Z,7.30
2018-01-27T04:22:59.804Z,7.30
2018-01-27T04:25:27.482Z,7.40
2018-01-27T04:27:56.570Z,7.40
2018-01-27T04:30:24.177Z,7.40
2018-01-27T04:32:52.538Z,7.40
2018-01-27T04:35:20.681Z,7.40
2018-01-27T04:37:48.303Z,7.40
2018-01-27T04:40:15.989Z,7.40
2018-01-27T04:42:43.722Z,7.40
2018-01-27T04:45:11.411Z,7.40
2018-01-27T04:47:39.035Z,7.40
2018-01-27T04:50:06.788Z,7.40
2018-01-27T04:52:34.427Z,7.40
2018-01-27T04:55:02.952Z,7.40
2018-01-27T04:57:30.808Z,7.40
2018-01-27T04:59:58.597Z,7.40
2018-01-27T05:02:26.950Z,7.40
2018-01-27T05:04:54.631Z,7.40
2018-01-27T05:07:22.207Z,7.40
2018-01-27T05:09:50.639Z,7.40
2018-01-27T05:12:19.111Z,7.40
2018-01-27T05:14:46.780Z,7.40
2018-01-27T05:17:14.511Z,7.30
2018-01-27T05:19:42.169Z,7.40
2018-01-27T05:22:10.400Z,7.40
2018-01-27T05:24:38.865Z,7.30
2018-01-27T05:27:06.893Z,7.30
2018-01-27T05:29:34.478Z,7.30
2018-01-27T05:32:02.071Z,7.30
2018-01-27T05:34:29.707Z,7.30
2018-01-27T05:36:57.581Z,7.30
2018-01-27T05:39:27.111Z,7.30
2018-01-27T05:41:55.630Z,7.20
2018-01-27T05:44:23.297Z,7.20
2018-01-27T05:46:50.943Z,7.30
2018-01-27T05:49:19.574Z,7.30
2018-01-27T05:51:47.318Z,7.30
2018-01-27T05:54:14.950Z,7.20
2018-01-27T05:56:42.710Z,7.20
2018-01-27T05:59:11.119Z,7.20
2018-01-27T06:01:39.834Z,7.20
2018-01-27T06:04:07.662Z,7.20
2018-01-27T06:06:35.268Z,7.20
2018-01-27T06:09:02.931Z,7.20
2018-01-27T06:11:31.561Z,7.20
2018-01-27T06:14:00.043Z,7.20
2018-01-27T06:16:27.697Z,7.20
2018-01-27T06:18:56.108Z,7.20
2018-01-27T06:21:23.737Z,7.20
2018-01-27T06:23:52.272Z,7.20
2018-01-27T06:26:20.008Z,7.10
2018-01-27T06:28:48.089Z,7.10
2018-01-27T06:31:16.309Z,7.10
2018-01-27T06:33:44.164Z,7.10
2018-01-27T06:36:11.832Z,7.10
2018-01-27T06:38:39.689Z,7.00
2018-01-27T06:41:07.341Z,7.00
2018-01-27T06:43:35.008Z,7.00
2018-01-27T06:46:02.849Z,7.00
2018-01-27T06:48:30.763Z,7.00
2018-01-27T06:50:59.540Z,7.00
2018-01-27T06:53:27.241Z,7.00
2018-01-27T06:55:54.949Z,7.00
2018-01-27T06:58:22.584Z,6.90
2018-01-27T07:00:50.975Z,6.90
2018-01-27T07:03:18.788Z,6.90
2018-01-27T07:05:46.417Z,6.90
2018-01-27T07:08:15.114Z,6.90
2018-01-27T07:10:42.779Z,7.00
2018-01-27T07:13:10.473Z,6.90
2018-01-27T07:15:38.094Z,6.90
2018-01-27T07:18:06.527Z,6.90
2018-01-27T07:20:34.088Z,6.90
2018-01-27T07:23:01.738Z,6.90
2018-01-27T07:25:29.449Z,6.90
2018-01-27T07:27:57.238Z,6.90
2018-01-27T07:30:24.871Z,6.80
2018-01-27T07:32:52.739Z,6.80
2018-01-27T07:35:21.100Z,6.80
2018-01-27T07:37:48.660Z,6.80
2018-01-27T07:40:16.371Z,6.80
2018-01-27T07:42:44.171Z,6.70
2018-01-27T07:45:12.385Z,6.70
2018-01-27T07:47:40.073Z,6.70
2018-01-27T07:50:07.651Z,6.70
2018-01-27T07:52:35.634Z,6.70
2018-01-27T07:55:03.478Z,6.70
2018-01-27T07:57:31.078Z,6.70
2018-01-27T07:59:58.684Z,6.70
2018-01-27T08:02:26.288Z,6.80
2018-01-27T08:04:53.940Z,6.70
2018-01-27T08:07:21.701Z,6.80
2018-01-27T08:09:49.450Z,6.90
2018-01-27T08:12:17.077Z,6.80
2018-01-27T08:19:43.180Z,6.80
2018-01-27T08:22:10.896Z,6.90
2018-01-27T08:32:05.809Z,6.90
2018-01-27T08:34:33.422Z,7.00
2018-01-27T08:37:02.074Z,7.00
2018-01-27T08:39:30.695Z,7.00
2018-01-27T08:41:58.633Z,7.00
2018-01-27T08:44:26.199Z,7.00
2018-01-27T08:46:53.787Z,7.10
2018-01-27T08:49:22.856Z,7.10
2018-01-27T08:51:50.570Z,7.10
2018-01-27T08:54:18.260Z,7.10
2018-01-27T08:56:46.006Z,7.20
2018-01-27T08:59:13.722Z,7.20
2018-01-27T09:01:41.450Z,7.20
2018-01-27T09:04:09.043Z,7.20
2018-01-27T09:06:37.725Z,7.20
2018-01-27T09:09:05.454Z,7.10
2018-01-27T09:11:33.117Z,7.20
2018-01-27T09:14:00.815Z,7.30
2018-01-27T09:16:28.443Z,7.20
2018-01-27T09:18:55.997Z,7.30
2018-01-27T09:21:23.709Z,7.30
2018-01-27T09:23:51.443Z,7.30
2018-01-27T09:26:19.048Z,7.30
2018-01-27T09:28:47.535Z,7.40
2018-01-27T09:31:15.340Z,7.40
2018-01-27T09:33:42.929Z,7.40
2018-01-27T09:36:10.809Z,7.40
2018-01-27T09:38:39.201Z,7.40
2018-01-27T09:41:07.565Z,7.40
2018-01-27T09:43:35.290Z,7.40
2018-01-27T09:46:02.896Z,7.40
2018-01-27T09:48:30.583Z,7.40
2018-01-27T09:50:58.300Z,7.40
2018-01-27T09:53:25.904Z,7.40
2018-01-27T09:55:55.270Z,7.40
2018-01-27T09:58:22.984Z,7.30
2018-01-27T10:00:50.664Z,7.40
2018-01-27T10:03:18.306Z,7.40
2018-01-27T10:05:45.884Z,7.40
2018-01-27T10:08:13.511Z,7.40
2018-01-27T10:10:41.851Z,7.30
2018-01-27T10:13:10.248Z,7.30
2018-01-27T10:15:37.872Z,7.30
2018-01-27T10:18:05.946Z,7.40
2018-01-27T10:20:33.757Z,7.30
2018-01-27T10:23:02.190Z,7.40
2018-01-27T10:25:29.922Z,7.30
2018-01-27T10:27:57.557Z,7.40
2018-01-27T10:30:25.196Z,7.30
2018-01-27T10:32:52.885Z,7.30
2018-01-27T10:35:20.511Z,7.40
2018-01-27T10:37:48.289Z,7.40
2018-01-27T10:40:16.337Z,7.40
2018-01-27T10:42:44.592Z,7.50
2018-01-27T10:45:12.801Z,7.40
2018-01-27T10:47:40.576Z,7.40
2018-01-27T10:50:09.245Z,7.40
2018-01-27T10:52:37.000Z,7.40
2018-01-27T10:55:04.582Z,7.40
2018-01-27T10:57:32.337Z,7.50
2018-01-27T11:00:00.199Z,7.50
2018-01-27T11:02:27.773Z,7.50
2018-01-27T11:04:55.338Z,7.50
2018-01-27T11:07:22.966Z,7.50
2018-01-27T11:09:50.727Z,7.50
2018-01-27T11:12:18.751Z,7.50
2018-01-27T11:14:46.476Z,7.50
2018-01-27T11:17:14.063Z,7.50
2018-01-27T11:19:41.872Z,7.50
2018-01-27T11:22:09.702Z,7.40
2018-01-27T11:24:37.623Z,7.40
2018-01-27T11:27:05.319Z,7.40
2018-01-27T11:29:34.274Z,7.50
2018-01-27T11:32:02.697Z,7.50
2018-01-27T11:34:30.614Z,7.50
2018-01-27T11:36:59.149Z,7.40
2018-01-27T11:39:27.866Z,7.40
2018-01-27T11:41:56.262Z,7.40
2018-01-27T11:44:25.094Z,7.40
2018-01-27T11:46:53.037Z,7.40
2018-01-27T11:49:20.734Z,7.40
2018-01-27T11:51:49.224Z,7.50
2018-01-27T11:54:17.105Z,7.50
2018-01-27T11:56:46.328Z,7.50
2018-01-27T11:59:14.258Z,7.50
2018-01-27T12:01:42.035Z,7.50
2018-01-27T12:04:09.626Z,7.50
2018-01-27T12:06:39.014Z,7.50
2018-01-27T12:09:07.008Z,7.50
2018-01-27T12:11:35.482Z,7.50
2018-01-27T12:14:03.243Z,7.50
2018-01-27T12:16:30.883Z,7.50
2018-01-27T12:18:59.857Z,7.50
2018-01-27T12:21:27.652Z,7.50
2018-01-27T12:23:55.359Z,7.50
2018-01-27T12:26:22.928Z,7.50
2018-01-27T12:28:50.608Z,7.50
2018-01-27T12:31:18.514Z,7.50
2018-01-27T12:33:46.138Z,7.50
2018-01-27T12:36:13.761Z,7.50
2018-01-27T12:38:42.821Z,7.50
2018-01-27T12:41:10.503Z,7.40
2018-01-27T12:46:08.426Z,7.40
2018-01-27T12:48:36.366Z,7.40
2018-01-27T12:51:04.035Z,7.40
2018-01-27T12:53:32.461Z,7.40
2018-01-27T12:56:00.971Z,7.40
2018-01-27T12:58:29.709Z,7.40
2018-01-27T13:01:03.339Z,7.40
2018-01-27T13:03:31.307Z,7.40
2018-01-27T13:05:58.870Z,7.40
2018-01-27T13:08:26.471Z,7.40
2018-01-27T13:10:54.940Z,7.30
2018-01-27T13:13:23.491Z,7.30
2018-01-27T13:15:51.253Z,7.30
2018-01-27T13:18:19.919Z,7.30
2018-01-27T13:20:47.735Z,7.20
2018-01-27T13:23:16.035Z,7.30
2018-01-27T13:25:44.623Z,7.30
2018-01-27T13:28:13.566Z,7.30
2018-01-27T13:30:41.372Z,7.30
2018-01-27T13:33:09.587Z,7.30
2018-01-27T13:35:38.521Z,7.30
2018-01-27T13:38:07.268Z,7.30
2018-01-27T13:40:34.953Z,7.30
2018-01-27T13:43:03.074Z,7.30
2018-01-27T13:45:31.230Z,7.30
2018-01-27T13:47:59.705Z,7.30
2018-01-27T13:50:28.375Z,7.30
2018-01-27T13:52:56.200Z,7.30
2018-01-27T13:55:24.018Z,7.30
2018-01-27T13:57:51.747Z,7.30
2018-01-27T14:00:19.541Z,7.30
2018-01-27T14:02:47.607Z,7.30
2018-01-27T14:05:15.490Z,7.30
2018-01-27T14:07:43.238Z,7.20
2018-01-27T14:10:10.991Z,7.30
2018-01-27T14:12:39.558Z,7.20
2018-01-27T14:15:07.978Z,7.30
2018-01-27T14:17:36.416Z,7.20
2018-01-27T14:20:04.391Z,7.20
2018-01-27T14:22:32.310Z,7.10
2018-01-27T14:25:00.180Z,7.00
2018-01-27T14:27:27.955Z,7.00
2018-01-27T14:29:56.311Z,7.10
2018-01-27T14:32:24.041Z,7.10
2018-01-27T14:34:51.709Z,7.10
2018-01-27T14:37:19.295Z,7.10
2018-01-27T14:39:47.202Z,7.10
2018-01-27T14:42:16.406Z,7.10
2018-01-27T14:44:44.945Z,7.10
2018-01-27T14:47:12.559Z,7.00
2018-01-27T14:49:41.163Z,7.00
2018-01-27T14:52:10.045Z,7.00
2018-01-27T14:54:37.927Z,7.00
2018-01-27T14:57:05.526Z,7.10
2018-01-27T14:59:33.145Z,7.10
2018-01-27T15:02:00.801Z,7.10
2018-01-27T15:04:29.304Z,7.00
2018-01-27T15:06:57.069Z,7.00
2018-01-27T15:09:24.942Z,7.10
2018-01-27T15:11:52.636Z,7.10
2018-01-27T15:14:20.522Z,7.20
2018-01-27T15:16:49.029Z,7.20
2018-01-27T15:19:16.755Z,7.20
2018-01-27T15:21:44.507Z,7.20
2018-01-27T15:24:12.252Z,7.20
2018-01-27T15:26:40.034Z,7.20
2018-01-27T15:29:07.921Z,7.20
2018-01-27T15:31:36.420Z,7.20
2018-01-27T15:34:04.969Z,7.20
2018-01-27T15:36:34.622Z,7.20
2018-01-27T15:39:03.188Z,7.10
2018-01-27T15:41:31.115Z,7.10
2018-01-27T15:43:58.735Z,7.10
2018-01-27T15:46:27.389Z,7.10
2018-01-27T15:48:55.035Z,7.10
2018-01-27T15:51:22.783Z,7.10
2018-01-27T15:53:50.711Z,7.10
2018-01-27T15:56:18.379Z,7.00
2018-01-27T15:58:46.105Z,7.00
2018-01-27T16:01:13.904Z,7.00
2018-01-27T16:03:41.646Z,7.00
2018-01-27T16:06:09.659Z,7.00
2018-01-27T16:08:38.367Z,7.00
2018-01-27T16:11:06.117Z,7.00
2018-01-27T16:13:33.750Z,7.00
2018-01-27T16:16:02.281Z,7.00
2018-01-27T16:18:30.119Z,7.00
2018-01-27T16:21:00.363Z,7.00
2018-01-27T16:23:28.072Z,6.90
2018-01-27T16:25:55.895Z,7.00
2018-01-27T16:28:23.838Z,7.00
2018-01-27T16:30:52.008Z,7.00
2018-01-27T16:33:19.997Z,7.00
2018-01-27T16:35:47.872Z,6.90
2018-01-27T16:38:15.687Z,6.90
2018-01-27T16:40:43.536Z,6.90
2018-01-27T16:43:11.434Z,6.90
2018-01-27T16:45:39.832Z,6.90
2018-01-27T16:48:07.455Z,6.90
2018-01-27T16:50:35.012Z,6.90
2018-01-27T16:53:03.333Z,6.90
2018-01-27T16:55:31.116Z,6.80
2018-01-27T16:57:58.988Z,6.80
2018-01-27T17:00:26.718Z,6.70
2018-01-27T17:02:55.313Z,6.70
2018-01-27T17:05:23.488Z,6.70
2018-01-27T17:07:52.143Z,6.60
2018-01-27T17:10:20.641Z,6.60
2018-01-27T17:12:49.011Z,6.70
2018-01-27T17:15:16.775Z,6.60
2018-01-27T17:17:44.462Z,6.60
2018-01-27T17:20:12.900Z,6.60
2018-01-27T17:22:40.603Z,6.50
2018-01-27T17:25:08.967Z,6.40
2018-01-27T17:27:36.975Z,6.40
2018-01-27T17:30:05.398Z,6.30
2018-01-27T17:32:33.078Z,6.30
2018-01-27T17:39:58.744Z,6.20
2018-01-27T17:49:55.054Z,5.80
2018-01-27T17:52:22.791Z,5.90
2018-01-27T17:54:51.268Z,5.80
2018-01-27T17:57:19.844Z,5.80
2018-01-27T17:59:47.516Z,5.70
2018-01-27T18:02:16.425Z,5.70
2018-01-27T18:04:44.884Z,5.70
2018-01-27T18:07:13.496Z,5.70
2018-01-27T18:09:41.785Z,5.70
2018-01-27T18:12:09.629Z,5.70
2018-01-27T18:14:38.049Z,5.60
2018-01-27T18:17:07.208Z,5.40
2018-01-27T18:19:34.975Z,5.40
2018-01-27T18:22:02.645Z,5.40
2018-01-27T18:24:31.379Z,5.40
2018-01-27T18:26:59.068Z,5.50
2018-01-27T18:29:27.705Z,5.50
2018-01-27T18:31:55.754Z,5.50
2018-01-27T18:34:23.784Z,5.40
2018-01-27T18:36:51.492Z,5.50
2018-01-27T18:39:19.153Z,5.40
2018-01-27T18:41:46.821Z,5.40
2018-01-27T18:44:14.855Z,5.40
2018-01-27T18:46:43.247Z,5.40
2018-01-27T18:49:11.935Z,5.30
2018-01-27T18:51:41.372Z,5.30
2018-01-27T18:54:09.279Z,5.30
2018-01-27T18:56:37.917Z,5.20
2018-01-27T18:59:05.938Z,5.10
2018-01-27T19:01:34.354Z,5.00
2018-01-27T19:06:31.093Z,5.00
2018-01-27T19:08:58.901Z,5.10
2018-01-27T19:11:26.750Z,5.00
2018-01-27T19:13:54.637Z,5.00
2018-01-27T19:18:52.897Z,4.90
2018-01-27T19:21:21.309Z,5.00
2018-01-27T19:23:49.287Z,5.00
2018-01-27T19:26:17.133Z,4.80
2018-01-27T19:28:46.326Z,4.60
2018-01-27T19:31:13.985Z,4.60
2018-01-27T19:33:41.655Z,4.60
2018-01-27T19:36:10.991Z,4.50
2018-01-27T19:38:39.451Z,4.50
2018-01-27T19:41:08.491Z,4.50
2018-01-27T19:43:36.110Z,4.60
2018-01-27T19:46:03.846Z,4.40
2018-01-27T19:48:31.695Z,4.40
2018-01-27T19:51:00.134Z,4.30
2018-01-27T19:53:27.941Z,4.30
2018-01-27T19:55:55.644Z,4.40
2018-01-27T19:58:23.364Z,4.40
2018-01-27T20:00:51.088Z,4.20
2018-01-27T20:03:20.026Z,4.20
2018-01-27T20:05:47.964Z,4.20
2018-01-27T20:08:16.361Z,4.10
2018-01-27T20:10:43.980Z,4.10
2018-01-27T20:13:11.832Z,4.00
2018-01-27T20:15:39.560Z,4.00
2018-01-27T20:18:08.356Z,3.90
2018-01-27T20:20:36.411Z,3.90
2018-01-27T20:23:04.191Z,4.00
2018-01-27T20:25:31.870Z,3.90
2018-01-27T20:28:00.523Z,3.90
2018-01-27T20:30:28.241Z,3.90
2018-01-27T20:32:56.784Z,3.90
2018-01-27T20:35:24.592Z,4.00
2018-01-27T20:37:52.205Z,4.00
2018-01-27T20:40:20.206Z,4.00
2018-01-27T20:42:48.704Z,4.10
2018-01-27T20:45:16.306Z,4.10
2018-01-27T20:47:46.731Z,4.10
2018-01-27T20:50:14.604Z,4.10
2018-01-27T20:52:42.320Z,4.10
2018-01-27T20:55:09.904Z,4.10
2018-01-27T20:57:37.542Z,4.00
2018-01-27T21:00:05.276Z,4.00
2018-01-27T21:02:33.129Z,4.00
2018-01-27T21:05:01.603Z,4.10
2018-01-27T21:09:58.334Z,3.90
2018-01-27T21:12:25.987Z,4.00
2018-01-27T21:14:53.746Z,3.90
2018-01-27T21:17:22.066Z,3.90
2018-01-27T21:19:49.791Z,3.90
2018-01-27T21:22:17.357Z,3.90
2018-01-27T21:24:45.956Z,3.90
2018-01-27T21:27:13.897Z,4.00
2018-01-27T21:29:42.248Z,3.90
2018-01-27T21:32:09.987Z,3.80
2018-01-27T21:34:38.467Z,4.00
2018-01-27T21:37:06.122Z,3.80
2018-01-27T21:39:33.842Z,3.90
2018-01-27T21:42:02.418Z,3.70
2018-01-27T21:44:30.179Z,3.70
2018-01-27T21:46:59.376Z,3.70
2018-01-27T21:49:27.827Z,3.80
2018-01-27T21:51:55.528Z,3.80
2018-01-27T21:54:23.421Z,3.80
2018-01-27T21:56:51.218Z,3.80
2018-01-27T21:59:18.983Z,3.80
2018-01-27T22:01:46.567Z,3.90
2018-01-27T22:04:15.232Z,3.90
2018-01-27T22:06:42.947Z,3.90
2018-01-27T22:09:11.446Z,4.00
2018-01-27T22:11:39.205Z,4.00
2018-01-27T22:14:06.911Z,4.00
2018-01-27T22:16:35.786Z,4.10
2018-01-27T22:19:03.737Z,4.10
2018-01-27T22:21:31.302Z,4.10
2018-01-27T22:23:58.927Z,4.20
2018-01-27T22:26:26.700Z,4.10
2018-01-27T22:28:54.280Z,4.20
2018-01-27T22:31:22.633Z,4.20
2018-01-27T22:33:50.294Z,4.20
2018-01-27T22:36:18.635Z,4.20
2018-01-27T22:38:46.401Z,4.30
2018-01-27T22:41:14.385Z,4.30
2018-01-27T22:43:42.197Z,4.30
2018-01-27T22:46:09.780Z,4.30
2018-01-27T22:48:37.437Z,4.30
2018-01-27T22:51:05.021Z,4.40
2018-01-27T22:53:32.687Z,4.40
2018-01-27T22:56:00.398Z,4.30
2018-01-27T22:58:28.901Z,4.40
2018-01-27T23:01:02.819Z,4.40
2018-01-27T23:03:31.245Z,4.50
2018-01-27T23:05:59.178Z,4.50
2018-01-27T23:08:26.895Z,4.50
2018-01-27T23:10:55.294Z,4.60
2018-01-27T23:13:23.688Z,4.60
2018-01-27T23:15:53.221Z,4.60
2018-01-27T23:18:20.982Z,4.60
2018-01-27T23:20:48.693Z,4.60
2018-01-27T23:23:16.301Z,4.60
2018-01-27T23:25:43.943Z,4.60
2018-01-27T23:28:11.507Z,4.50
2018-01-27T23:30:39.630Z,4.50
2018-01-27T23:33:07.241Z,4.40
2018-01-27T23:35:34.845Z,4.40
2018-01-27T23:38:02.517Z,4.40
2018-01-27T23:40:30.217Z,4.40
2018-01-27T23:42:58.131Z,4.40
2018-01-27T23:45:25.731Z,4.30
2018-01-27T23:47:54.175Z,4.30
2018-01-27T23:50:21.751Z,4.30
2018-01-27T23:52:49.705Z,4.40
2018-01-27T23:55:17.353Z,4.40
2018-01-27T23:57:44.991Z,4.40
